Time;durP1;ratioP1;P1;durP2;ratioP2;P2;SDS_P1;SDS_P2;PMS_P1;PMS_P2;Temp;Humidity;BMP_temperature;BMP_pressure;BME280_temperature;BME280_humidity;BME280_pressure;Samples;Min_cycle;Max_cycle;Signal;HPM_P1;HPM_P2
2021/05/15 00:00:32;;;;;;;2.30;2.00;;;;;;;14.65;79.48;98101.83;1693584;84;21558;-67
2021/05/15 00:02:59;;;;;;;2.10;1.90;;;;;;;14.62;79.13;98102.83;1691502;84;21008;-67
2021/05/15 00:05:26;;;;;;;2.25;2.05;;;;;;;14.58;78.82;98105.14;1695524;83;20976;-66
2021/05/15 00:07:52;;;;;;;5.12;1.82;;;;;;;14.56;78.71;98100.54;1695491;83;21581;-66
2021/05/15 00:10:20;;;;;;;1.72;1.62;;;;;;;14.53;78.51;98110.36;1693750;82;21565;-66
2021/05/15 00:12:48;;;;;;;2.42;1.82;;;;;;;14.49;78.25;98102.51;1709342;83;21125;-67
2021/05/15 00:15:16;;;;;;;2.02;1.82;;;;;;;14.45;78.14;98113.35;1717642;83;21737;-67
2021/05/15 00:17:44;;;;;;;2.30;2.00;;;;;;;14.42;78.06;98111.13;1718448;83;20882;-66
2021/05/15 00:20:15;;;;;;;2.10;1.72;;;;;;;14.41;77.98;98110.85;1718341;83;20942;-68
2021/05/15 00:22:42;;;;;;;1.67;1.30;;;;;;;14.40;77.89;98109.72;1713646;83;20945;-66
2021/05/15 00:25:11;;;;;;;4.00;1.40;;;;;;;14.40;77.83;98115.89;1717156;83;21087;-65
2021/05/15 00:27:38;;;;;;;2.12;1.98;;;;;;;14.41;77.86;98116.20;1718304;83;21607;-67
2021/05/15 00:30:12;;;;;;;2.17;1.92;;;;;;;14.40;77.67;98115.08;1718310;83;20937;-70
2021/05/15 00:32:38;;;;;;;3.33;2.10;;;;;;;14.35;77.50;98119.77;1716415;83;20989;-68
2021/05/15 00:35:06;;;;;;;1.82;1.70;;;;;;;14.30;77.59;98119.61;1714820;83;21506;-68
2021/05/15 00:37:33;;;;;;;3.22;1.87;;;;;;;14.25;77.58;98118.14;1717194;83;21028;-70
2021/05/15 00:40:00;;;;;;;1.67;1.57;;;;;;;14.19;77.45;98118.52;1718200;83;21037;-66
2021/05/15 00:42:26;;;;;;;5.12;1.77;;;;;;;14.13;77.38;98110.59;1710181;83;21575;-67
2021/05/15 00:44:53;;;;;;;1.42;1.32;;;;;;;14.07;77.24;98117.66;1716351;83;21036;-67
2021/05/15 00:47:22;;;;;;;1.62;1.52;;;;;;;14.00;76.97;98120.91;1716483;83;21010;-66
2021/05/15 00:49:51;;;;;;;1.47;1.37;;;;;;;13.92;76.83;98121.75;1718074;83;21297;-70
2021/05/15 00:52:19;;;;;;;2.47;1.50;;;;;;;13.85;76.91;98122.33;1718219;83;21002;-67
2021/05/15 00:54:46;;;;;;;3.45;1.70;;;;;;;13.79;76.98;98124.03;1712782;83;20978;-69
2021/05/15 00:57:12;;;;;;;1.55;1.40;;;;;;;13.73;77.17;98127.63;1718382;83;21007;-67
2021/05/15 00:59:40;;;;;;;3.33;1.50;;;;;;;13.69;77.20;98126.96;1718385;83;21591;-67
2021/05/15 01:02:09;;;;;;;1.55;1.45;;;;;;;13.63;77.29;98122.50;1718044;83;21699;-68
2021/05/15 01:04:36;;;;;;;1.77;1.50;;;;;;;13.56;77.44;98120.70;1714646;83;21347;-69
2021/05/15 01:07:05;;;;;;;1.55;1.45;;;;;;;13.50;77.59;98115.44;1718121;83;20926;-70
2021/05/15 01:09:31;;;;;;;2.92;2.20;;;;;;;13.46;77.76;98112.89;1718237;83;20953;-67
2021/05/15 01:11:58;;;;;;;1.75;1.60;;;;;;;13.42;77.84;98120.55;1711744;83;20964;-67
2021/05/15 01:14:24;;;;;;;2.80;1.92;;;;;;;13.37;77.81;98119.06;1692590;84;21662;-67
2021/05/15 01:16:51;;;;;;;2.83;1.87;;;;;;;13.33;77.88;98121.04;1695005;83;20972;-67
2021/05/15 01:19:17;;;;;;;2.20;1.70;;;;;;;13.26;77.99;98119.78;1695509;83;21002;-67
2021/05/15 01:21:44;;;;;;;2.00;1.70;;;;;;;13.20;78.19;98122.50;1695355;83;20952;-69
2021/05/15 01:24:11;;;;;;;1.75;1.42;;;;;;;13.17;78.42;98115.74;1691664;84;21004;-68
2021/05/15 01:26:38;;;;;;;2.30;1.67;;;;;;;13.15;78.50;98121.83;1694690;84;21228;-67
2021/05/15 01:29:06;;;;;;;3.25;2.00;;;;;;;13.13;78.61;98117.74;1694774;83;20933;-67
2021/05/15 01:31:34;;;;;;;2.00;1.55;;;;;;;13.09;78.58;98120.56;1650313;86;20941;-70
2021/05/15 01:34:00;;;;;;;2.27;2.05;;;;;;;13.05;78.67;98118.81;1632459;86;21025;-66
2021/05/15 01:36:27;;;;;;;1.87;1.72;;;;;;;13.00;78.72;98116.80;1631963;86;21598;-66
2021/05/15 01:38:54;;;;;;;1.77;1.52;;;;;;;12.97;78.84;98117.23;1633283;86;21094;-67
2021/05/15 01:41:20;;;;;;;4.72;2.00;;;;;;;12.95;78.87;98120.64;1633198;87;20969;-67
2021/05/15 01:43:47;;;;;;;1.42;1.32;;;;;;;12.90;78.94;98121.81;1656170;86;20996;-66
2021/05/15 01:46:14;;;;;;;2.40;1.45;;;;;;;12.88;79.09;98119.03;1640234;86;21016;-68
2021/05/15 01:48:42;;;;;;;1.95;1.50;;;;;;;12.84;79.18;98125.34;1661613;85;21561;-68
2021/05/15 01:51:13;;;;;;;1.92;1.75;;;;;;;12.80;79.32;98129.46;1661532;85;21843;-68
2021/05/15 01:53:47;;;;;;;1.60;1.50;;;;;;;12.78;79.47;98122.70;1661573;86;21064;-69
2021/05/15 01:56:19;;;;;;;1.37;1.27;;;;;;;12.76;79.53;98126.12;1655741;85;20988;-67
2021/05/15 01:58:46;;;;;;;3.95;2.00;;;;;;;12.72;79.62;98127.05;1646208;86;21125;-66
2021/05/15 02:01:13;;;;;;;1.62;1.50;;;;;;;12.69;79.72;98131.52;1662001;86;21030;-68
2021/05/15 02:03:41;;;;;;;2.45;2.27;;;;;;;12.67;79.85;98131.44;1632337;86;21527;-66
2021/05/15 02:06:07;;;;;;;2.05;1.85;;;;;;;12.65;79.95;98130.80;1657570;86;21591;-68
2021/05/15 02:08:34;;;;;;;3.22;1.80;;;;;;;12.63;80.03;98132.88;1662142;86;21054;-68
2021/05/15 02:11:03;;;;;;;3.02;1.80;;;;;;;12.63;80.07;98135.55;1662558;86;20954;-67
2021/05/15 02:13:30;;;;;;;1.80;1.60;;;;;;;12.58;80.12;98137.53;1663792;84;20980;-69
2021/05/15 02:16:00;;;;;;;1.70;1.60;;;;;;;12.53;80.24;98132.03;1698550;83;20972;-68
2021/05/15 02:18:26;;;;;;;2.22;1.55;;;;;;;12.50;80.38;98135.63;1710153;83;21653;-66
2021/05/15 02:20:55;;;;;;;1.65;1.55;;;;;;;12.49;80.41;98138.02;1710964;83;21598;-66
2021/05/15 02:23:21;;;;;;;1.95;1.50;;;;;;;12.47;80.41;98140.05;1701631;83;21505;-67
2021/05/15 02:25:48;;;;;;;2.17;1.67;;;;;;;12.43;80.50;98133.02;1695453;83;21016;-67
2021/05/15 02:28:15;;;;;;;2.37;1.55;;;;;;;12.40;80.54;98140.11;1710939;83;21711;-67
2021/05/15 02:30:42;;;;;;;2.08;1.90;;;;;;;12.38;80.63;98138.18;1710175;83;20890;-66
2021/05/15 02:33:09;;;;;;;2.65;1.50;;;;;;;12.35;80.75;98138.59;1703073;83;21569;-67
2021/05/15 02:35:35;;;;;;;3.90;2.05;;;;;;;12.33;80.89;98144.13;1686712;84;20969;-67
2021/05/15 02:38:04;;;;;;;1.55;1.45;;;;;;;12.33;80.92;98149.46;1689961;84;20953;-67
2021/05/15 02:40:30;;;;;;;1.85;1.40;;;;;;;12.34;80.97;98148.44;1690037;84;21074;-66
2021/05/15 02:42:57;;;;;;;3.87;1.92;;;;;;;12.34;80.95;98155.11;1683679;84;21012;-66
2021/05/15 02:45:24;;;;;;;1.95;1.70;;;;;;;12.32;81.01;98158.52;1673514;83;21514;-67
2021/05/15 02:47:53;;;;;;;1.95;1.65;;;;;;;12.30;81.05;98157.91;1642100;86;21084;-71
2021/05/15 02:50:21;;;;;;;2.58;1.77;;;;;;;12.31;81.12;98161.38;1621373;87;21033;-67
2021/05/15 02:52:47;;;;;;;1.90;1.65;;;;;;;12.32;81.13;98170.52;1626106;87;21114;-67
2021/05/15 02:55:17;;;;;;;3.47;1.75;;;;;;;12.34;81.11;98171.63;1621382;87;21105;-68
2021/05/15 02:57:44;;;;;;;1.77;1.67;;;;;;;12.33;81.11;98164.67;1627481;87;21102;-70
2021/05/15 03:00:17;;;;;;;2.22;2.00;;;;;;;12.34;81.11;98166.28;1708977;83;20985;-69
2021/05/15 03:02:43;;;;;;;2.05;1.95;;;;;;;12.35;81.14;98172.76;1710369;83;21075;-66
2021/05/15 03:05:12;;;;;;;1.82;1.72;;;;;;;12.38;81.17;98173.64;1703703;83;21055;-66
2021/05/15 03:07:39;;;;;;;2.12;1.87;;;;;;;12.44;81.13;98175.15;1690434;83;21106;-67
2021/05/15 03:10:08;;;;;;;1.95;1.75;;;;;;;12.49;81.00;98170.02;1709249;83;20980;-66
2021/05/15 03:12:38;;;;;;;2.00;1.90;;;;;;;12.54;80.96;98174.20;1709035;83;21004;-69
2021/05/15 03:15:08;;;;;;;2.10;1.87;;;;;;;12.61;80.76;98174.97;1699577;83;21004;-69
2021/05/15 03:17:36;;;;;;;2.08;1.87;;;;;;;12.63;80.60;98175.56;1697618;84;20969;-67
2021/05/15 03:20:07;;;;;;;2.40;2.20;;;;;;;12.64;80.59;98177.21;1704705;84;20945;-68
2021/05/15 03:22:33;;;;;;;2.33;2.10;;;;;;;12.67;80.50;98171.45;1695301;84;20929;-68
2021/05/15 03:25:00;;;;;;;2.17;1.98;;;;;;;12.67;80.43;98180.25;1692504;83;20988;-69
2021/05/15 03:27:26;;;;;;;2.75;2.20;;;;;;;12.66;80.44;98177.81;1692666;84;21700;-68
2021/05/15 03:29:53;;;;;;;2.72;2.35;;;;;;;12.66;80.52;98179.14;1696008;83;21094;-67
2021/05/15 03:32:19;;;;;;;2.37;2.17;;;;;;;12.66;80.57;98177.81;1704275;83;21551;-68
2021/05/15 03:34:46;;;;;;;4.50;2.30;;;;;;;12.68;80.59;98180.56;1693301;83;21350;-66
2021/05/15 03:37:12;;;;;;;2.60;2.40;;;;;;;12.67;80.62;98172.25;1692717;84;20940;-66
2021/05/15 03:39:39;;;;;;;3.08;2.75;;;;;;;12.72;80.64;98176.96;1695376;84;21008;-67
2021/05/15 03:42:05;;;;;;;4.42;2.47;;;;;;;12.74;80.63;98175.71;1695471;83;21819;-66
2021/05/15 03:44:33;;;;;;;3.87;2.98;;;;;;;12.76;80.64;98180.31;1691333;83;21059;-69
2021/05/15 03:46:59;;;;;;;2.98;2.35;;;;;;;12.80;80.68;98179.37;1700851;84;21000;-66
2021/05/15 03:49:26;;;;;;;3.02;2.75;;;;;;;12.83;80.67;98181.08;1693338;83;21050;-67
2021/05/15 03:51:52;;;;;;;3.95;2.72;;;;;;;12.90;80.63;98185.88;1695423;83;20940;-67
2021/05/15 03:54:19;;;;;;;2.20;2.02;;;;;;;12.96;80.45;98186.33;1692143;83;21623;-67
2021/05/15 03:56:47;;;;;;;2.80;2.60;;;;;;;13.03;80.29;98193.76;1661018;85;21578;-64
2021/05/15 03:59:13;;;;;;;3.33;2.33;;;;;;;13.09;80.05;98185.44;1652174;85;20937;-69
2021/05/15 04:01:40;;;;;;;3.47;3.20;;;;;;;13.15;79.89;98187.76;1663280;85;21025;-66
2021/05/15 04:04:07;;;;;;;3.33;2.42;;;;;;;13.22;79.74;98191.22;1660887;85;21586;-67
2021/05/15 04:06:33;;;;;;;2.85;2.60;;;;;;;13.32;79.69;98191.00;1635017;86;21110;-68
2021/05/15 04:09:01;;;;;;;4.25;3.10;;;;;;;13.44;79.34;98193.78;1665144;85;21088;-67
2021/05/15 04:11:34;;;;;;;3.55;2.87;;;;;;;13.55;78.94;98199.75;1663256;86;21661;-66
2021/05/15 04:13:59;;;;;;;3.55;3.25;;;;;;;13.60;78.47;98197.23;1655865;84;21000;-70
2021/05/15 04:16:42;;;;;;;7.95;3.27;;;;;;;13.63;78.27;98203.99;1661243;86;21630;-68
2021/05/15 04:18:54;;;;;;;3.52;3.20;;;;;;;13.66;78.25;98212.91;1661073;86;21170;-67
2021/05/15 04:21:21;;;;;;;3.62;3.33;;;;;;;13.69;78.18;98205.80;1652794;86;21030;-69
2021/05/15 04:23:47;;;;;;;5.47;3.60;;;;;;;13.71;78.20;98213.06;1658440;86;21043;-69
2021/05/15 04:26:15;;;;;;;3.77;3.45;;;;;;;13.74;78.24;98214.76;1658080;84;21053;-69
2021/05/15 04:28:41;;;;;;;3.65;3.30;;;;;;;13.78;78.27;98215.97;1666626;86;21546;-66
2021/05/15 04:31:08;;;;;;;3.98;3.67;;;;;;;13.81;78.31;98212.86;1653476;86;21054;-67
2021/05/15 04:33:36;;;;;;;4.45;3.45;;;;;;;13.86;78.32;98218.36;1645135;86;20981;-66
2021/05/15 04:36:03;;;;;;;3.58;3.27;;;;;;;13.93;78.35;98220.95;1651823;86;21001;-64
2021/05/15 04:38:30;;;;;;;4.55;3.50;;;;;;;14.01;78.28;98209.45;1650984;86;21072;-67
2021/05/15 04:40:56;;;;;;;5.17;3.67;;;;;;;14.07;78.25;98211.76;1654551;86;21041;-68
2021/05/15 04:43:23;;;;;;;3.92;3.62;;;;;;;14.10;78.21;98219.34;1651330;86;21094;-71
2021/05/15 04:45:51;;;;;;;4.87;3.58;;;;;;;14.14;78.28;98217.84;1651054;86;21018;-67
2021/05/15 04:48:17;;;;;;;4.28;3.87;;;;;;;14.18;78.31;98223.06;1646429;86;21029;-67
2021/05/15 04:50:46;;;;;;;5.70;4.67;;;;;;;14.21;78.42;98226.59;1652453;86;20970;-67
2021/05/15 04:53:12;;;;;;;5.75;4.70;;;;;;;14.24;78.51;98222.14;1654363;86;20938;-66
2021/05/15 04:55:43;;;;;;;4.97;4.58;;;;;;;14.27;78.59;98225.72;1646253;86;21099;-70
2021/05/15 04:58:09;;;;;;;12.25;5.47;;;;;;;14.29;78.72;98224.96;1655713;86;21554;-67
2021/05/15 05:00:36;;;;;;;6.58;4.50;;;;;;;14.34;78.92;98235.05;1660618;85;21073;-71
2021/05/15 05:03:03;;;;;;;5.30;4.78;;;;;;;14.40;78.96;98232.80;1655958;86;20999;-70
2021/05/15 05:05:29;;;;;;;5.37;4.87;;;;;;;14.46;78.98;98232.73;1642012;86;21550;-66
2021/05/15 05:07:57;;;;;;;5.83;5.33;;;;;;;14.54;79.01;98237.77;1651353;85;21130;-70
2021/05/15 05:10:23;;;;;;;5.78;5.20;;;;;;;14.61;78.83;98232.33;1652282;86;21038;-67
2021/05/15 05:12:50;;;;;;;5.87;5.17;;;;;;;14.64;78.76;98236.72;1657048;84;21605;-63
2021/05/15 05:15:17;;;;;;;6.53;5.95;;;;;;;14.69;78.80;98235.52;1687968;84;21647;-66
2021/05/15 05:17:44;;;;;;;7.35;6.75;;;;;;;14.76;78.78;98238.91;1692590;84;21055;-67
2021/05/15 05:20:11;;;;;;;8.80;6.03;;;;;;;14.80;78.82;98246.80;1696370;84;21140;-67
2021/05/15 05:22:38;;;;;;;7.15;6.50;;;;;;;14.83;78.73;98242.85;1693523;84;21121;-69
2021/05/15 05:25:11;;;;;;;6.65;6.05;;;;;;;14.89;78.63;98247.83;1692571;84;21047;-72
2021/05/15 05:27:35;;;;;;;7.60;6.62;;;;;;;14.92;78.65;98246.00;1695173;83;21636;-69
2021/05/15 05:30:03;;;;;;;7.40;6.55;;;;;;;14.95;78.54;98246.89;1688666;84;21091;-70
2021/05/15 05:32:30;;;;;;;7.40;6.80;;;;;;;14.99;78.52;98252.90;1657301;85;21123;-68
2021/05/15 05:34:57;;;;;;;7.62;7.03;;;;;;;15.01;78.52;98258.87;1616923;87;21127;-54
2021/05/15 05:37:26;;;;;;;7.42;6.67;;;;;;;15.04;78.42;98255.73;1665829;84;21648;-58
2021/05/15 05:39:54;;;;;;;7.10;6.50;;;;;;;15.03;78.31;98263.47;1693729;84;20955;-54
2021/05/15 05:42:20;;;;;;;8.25;7.55;;;;;;;15.03;78.28;98262.64;1697564;83;21092;-55
2021/05/15 05:44:48;;;;;;;8.68;7.60;;;;;;;15.01;78.25;98263.41;1693336;84;21035;-52
2021/05/15 05:47:15;;;;;;;7.87;7.17;;;;;;;14.98;78.40;98264.67;1671597;84;21647;-54
2021/05/15 05:49:41;;;;;;;8.05;7.35;;;;;;;14.93;78.67;98263.20;1672831;83;20884;-57
2021/05/15 05:52:08;;;;;;;8.88;8.00;;;;;;;14.92;78.86;98262.07;1672377;84;21053;-56
2021/05/15 05:54:34;;;;;;;8.80;8.00;;;;;;;14.91;79.09;98271.17;1672842;83;20940;-64
2021/05/15 05:57:01;;;;;;;9.03;8.23;;;;;;;14.88;79.22;98275.63;1674490;83;21860;-58
2021/05/15 05:59:27;;;;;;;9.08;8.18;;;;;;;14.86;79.47;98271.82;1701044;82;21047;-52
2021/05/15 06:01:54;;;;;;;7.95;7.35;;;;;;;14.83;79.92;98277.66;1702313;83;20911;-54
2021/05/15 06:04:21;;;;;;;9.60;8.55;;;;;;;14.82;80.15;98277.34;1696452;84;20983;-54
2021/05/15 06:06:47;;;;;;;10.03;9.18;;;;;;;14.78;80.41;98274.84;1688232;83;21146;-56
2021/05/15 06:09:18;;;;;;;10.18;8.43;;;;;;;14.75;80.72;98280.13;1682162;84;21099;-60
2021/05/15 06:11:45;;;;;;;10.18;9.18;;;;;;;14.72;81.11;98283.25;1700998;83;21644;-56
2021/05/15 06:14:13;;;;;;;10.68;9.78;;;;;;;14.72;81.31;98284.59;1693950;83;21048;-52
2021/05/15 06:16:41;;;;;;;11.70;10.60;;;;;;;14.74;81.56;98285.17;1684992;84;21087;-59
2021/05/15 06:19:09;;;;;;;11.00;10.05;;;;;;;14.75;81.84;98287.34;1684224;84;21040;-54
2021/05/15 06:21:36;;;;;;;13.10;10.50;;;;;;;14.75;81.96;98286.82;1684393;85;21108;-61
2021/05/15 06:24:03;;;;;;;13.75;11.35;;;;;;;14.77;82.36;98284.73;1685202;84;21024;-57
2021/05/15 06:26:29;;;;;;;12.82;11.57;;;;;;;14.80;82.63;98290.98;1682527;84;20980;-62
2021/05/15 06:28:56;;;;;;;13.90;12.07;;;;;;;14.83;82.65;98285.14;1685056;84;21499;-57
2021/05/15 06:31:22;;;;;;;15.08;13.53;;;;;;;14.87;83.03;98290.05;1678504;84;21032;-56
2021/05/15 06:33:49;;;;;;;14.53;13.05;;;;;;;14.88;83.51;98290.36;1684119;84;21547;-62
2021/05/15 06:36:15;;;;;;;14.20;12.80;;;;;;;14.95;83.49;98294.58;1678926;84;21848;-61
2021/05/15 06:38:42;;;;;;;15.98;14.03;;;;;;;15.02;83.13;98293.96;1677933;84;20982;-61
2021/05/15 06:41:09;;;;;;;13.98;12.78;;;;;;;15.12;82.79;98294.23;1679926;84;21002;-59
2021/05/15 06:43:35;;;;;;;15.35;13.85;;;;;;;15.22;82.71;98296.38;1677084;84;21089;-63
2021/05/15 06:46:02;;;;;;;14.25;12.85;;;;;;;15.36;82.37;98294.61;1678648;84;21153;-61
2021/05/15 06:48:29;;;;;;;14.55;13.28;;;;;;;15.59;81.83;98300.56;1675720;84;21054;-63
2021/05/15 06:50:57;;;;;;;14.40;13.10;;;;;;;15.87;81.22;98291.36;1679361;84;21010;-60
2021/05/15 06:53:23;;;;;;;15.03;13.53;;;;;;;16.16;79.91;98294.97;1679203;84;21026;-61
2021/05/15 06:55:50;;;;;;;14.93;12.98;;;;;;;16.33;78.65;98301.25;1680208;84;20990;-61
2021/05/15 06:58:16;;;;;;;14.65;13.35;;;;;;;16.47;77.63;98303.16;1679818;84;21703;-59
2021/05/15 07:00:42;;;;;;;13.55;12.35;;;;;;;16.57;76.90;98308.77;1678343;84;21057;-56
2021/05/15 07:03:09;;;;;;;13.25;12.07;;;;;;;16.75;76.09;98305.92;1678345;84;20966;-48
2021/05/15 07:05:35;;;;;;;13.30;12.00;;;;;;;17.12;75.52;98306.39;1678899;84;20996;-55
2021/05/15 07:08:04;;;;;;;12.63;11.53;;;;;;;17.68;73.84;98307.69;1674664;84;21078;-52
2021/05/15 07:10:31;;;;;;;16.45;12.37;;;;;;;18.19;71.45;98302.59;1679247;84;21337;-55
2021/05/15 07:12:59;;;;;;;10.80;9.80;;;;;;;18.63;69.63;98305.36;1676144;84;21736;-55
2021/05/15 07:15:27;;;;;;;12.18;10.98;;;;;;;19.01;68.70;98305.28;1673056;84;20997;-67
2021/05/15 07:17:53;;;;;;;11.95;10.75;;;;;;;19.29;67.35;98303.72;1685385;83;21053;-65
2021/05/15 07:20:20;;;;;;;11.95;10.75;;;;;;;19.43;66.28;98304.95;1678568;84;21699;-62
2021/05/15 07:22:47;;;;;;;13.28;11.18;;;;;;;19.54;65.72;98304.52;1680309;82;21162;-60
2021/05/15 07:25:13;;;;;;;11.22;10.30;;;;;;;19.57;65.00;98312.11;1676842;84;21116;-59
2021/05/15 07:27:40;;;;;;;10.78;9.58;;;;;;;19.59;64.33;98311.31;1675995;84;21125;-60
2021/05/15 07:30:08;;;;;;;12.98;11.65;;;;;;;19.73;63.99;98312.53;1639252;85;21124;-60
2021/05/15 07:32:35;;;;;;;11.25;10.23;;;;;;;19.86;63.28;98314.80;1636143;85;21080;-61
2021/05/15 07:35:02;;;;;;;11.53;10.40;;;;;;;20.01;62.72;98316.79;1641894;85;22306;-61
2021/05/15 07:37:28;;;;;;;11.95;10.85;;;;;;;20.08;61.92;98311.98;1642697;85;21104;-61
2021/05/15 07:39:55;;;;;;;12.80;11.50;;;;;;;20.04;62.15;98322.50;1641630;85;21060;-59
2021/05/15 07:42:22;;;;;;;11.78;10.78;;;;;;;20.13;61.84;98322.81;1646264;85;21036;-59
2021/05/15 07:44:48;;;;;;;13.15;12.07;;;;;;;20.19;61.89;98325.30;1642659;85;21004;-60
2021/05/15 07:47:15;;;;;;;13.45;11.05;;;;;;;20.27;61.88;98326.73;1642900;85;21089;-61
2021/05/15 07:49:42;;;;;;;12.95;11.68;;;;;;;20.29;61.11;98334.03;1642557;85;20969;-62
2021/05/15 07:52:09;;;;;;;13.05;11.83;;;;;;;20.15;60.91;98329.58;1643175;85;21096;-63
2021/05/15 07:57:19;;;;;;;13.93;12.82;;;;;;;19.86;62.14;98330.98;1815286;78;23396;-63
2021/05/15 07:59:47;;;;;;;14.47;12.70;;;;;;;19.77;62.00;98339.79;1741455;80;21112;-64
2021/05/15 08:02:13;;;;;;;13.80;11.65;;;;;;;19.69;62.46;98343.77;1747359;82;21682;-61
2021/05/15 08:04:40;;;;;;;13.22;11.60;;;;;;;19.73;62.93;98338.16;1743442;82;21001;-60
2021/05/15 08:07:06;;;;;;;12.78;11.68;;;;;;;19.82;62.75;98339.84;1746737;82;20952;-59
2021/05/15 08:09:32;;;;;;;13.45;12.15;;;;;;;19.86;62.14;98336.92;1746498;82;20952;-63
2021/05/15 08:12:00;;;;;;;15.85;13.18;;;;;;;19.83;62.18;98341.47;1746415;82;20996;-60
2021/05/15 08:14:31;;;;;;;13.72;12.53;;;;;;;19.78;62.29;98346.30;1746528;82;21446;-59
2021/05/15 08:16:59;;;;;;;13.98;12.68;;;;;;;19.70;62.06;98350.28;1745901;82;21525;-60
2021/05/15 08:19:27;;;;;;;14.00;12.47;;;;;;;19.69;62.30;98351.87;1746819;82;20908;-57
2021/05/15 08:21:53;;;;;;;14.40;13.20;;;;;;;19.75;62.09;98352.20;1743135;82;21126;-58
2021/05/15 08:24:21;;;;;;;15.30;13.83;;;;;;;19.80;62.05;98360.34;1770474;78;20982;-54
2021/05/15 08:26:49;;;;;;;16.95;15.30;;;;;;;19.86;61.86;98367.95;1787109;78;21080;-61
2021/05/15 08:29:17;;;;;;;14.40;13.13;;;;;;;19.92;61.53;98360.19;1788547;78;20996;-55
2021/05/15 08:31:44;;;;;;;16.37;14.98;;;;;;;19.93;60.95;98364.50;1788373;78;20983;-53
2021/05/15 08:34:11;;;;;;;16.80;15.40;;;;;;;19.94;61.16;98366.14;1787803;78;20924;-56
2021/05/15 08:36:37;;;;;;;16.40;14.87;;;;;;;20.22;61.29;98369.87;1787095;78;21552;-58
2021/05/15 08:39:06;;;;;;;15.95;14.47;;;;;;;20.75;60.12;98372.96;1786620;78;21130;-60
2021/05/15 08:41:34;;;;;;;14.50;13.28;;;;;;;21.24;58.53;98372.94;1787176;78;21517;-55
2021/05/15 08:44:02;;;;;;;16.62;15.10;;;;;;;21.68;57.62;98373.86;1765927;78;20909;-56
2021/05/15 08:46:30;;;;;;;14.85;13.62;;;;;;;22.00;56.27;98374.48;1785299;78;21518;-58
2021/05/15 08:49:00;;;;;;;13.72;12.63;;;;;;;22.10;55.34;98378.01;1791423;78;21115;-55
2021/05/15 08:51:26;;;;;;;15.68;14.28;;;;;;;22.11;55.55;98378.80;1774490;78;21075;-58
2021/05/15 08:53:59;;;;;;;15.55;14.18;;;;;;;22.05;54.65;98391.55;1795017;78;21599;-58
2021/05/15 08:56:26;;;;;;;16.95;15.45;;;;;;;21.91;54.52;98390.98;1788450;78;21063;-61
2021/05/15 08:58:54;;;;;;;15.48;14.00;;;;;;;21.69;54.60;98392.52;1794720;78;21027;-67
2021/05/15 09:01:21;;;;;;;16.77;15.43;;;;;;;21.47;55.18;98396.00;1766235;78;20984;-62
2021/05/15 09:03:48;;;;;;;13.68;12.55;;;;;;;21.29;55.30;98394.59;1795575;78;21692;-65
2021/05/15 09:06:14;;;;;;;17.77;15.83;;;;;;;21.12;56.33;98393.18;1796127;78;20932;-64
2021/05/15 09:08:48;;;;;;;16.82;13.53;;;;;;;20.99;56.40;98400.39;1757328;80;21030;-64
2021/05/15 09:11:14;;;;;;;14.80;13.40;;;;;;;20.71;57.10;98402.39;1847700;77;21050;-62
2021/05/15 09:13:54;;;;;;;13.88;12.68;;;;;;;20.66;57.90;98401.53;1815632;77;20987;-61
2021/05/15 09:16:21;;;;;;;14.47;13.28;;;;;;;20.64;57.58;98400.45;1802816;77;21601;-61
2021/05/15 09:18:47;;;;;;;15.95;14.18;;;;;;;20.72;57.99;98404.03;1796002;78;20968;-60
2021/05/15 09:21:19;;;;;;;15.30;14.00;;;;;;;20.80;57.76;98402.19;1794962;78;21059;-63
2021/05/15 09:23:46;;;;;;;16.02;14.68;;;;;;;20.80;57.63;98400.02;1794842;78;21533;-65
2021/05/15 09:26:16;;;;;;;14.68;13.38;;;;;;;20.74;57.56;98404.57;1798525;78;21024;-65
2021/05/15 09:28:57;;;;;;;15.85;14.38;;;;;;;20.78;58.39;98404.31;1798169;78;21053;-61
2021/05/15 09:31:42;;;;;;;15.15;13.72;;;;;;;20.92;57.84;98407.37;1799965;78;20968;-60
2021/05/15 09:34:07;;;;;;;15.68;13.78;;;;;;;20.97;57.54;98399.81;1794331;78;20964;-62
2021/05/15 09:36:43;;;;;;;18.42;16.67;;;;;;;20.92;57.54;98399.26;1794691;78;21544;-68
2021/05/15 09:39:20;;;;;;;15.85;14.65;;;;;;;20.82;58.14;98403.27;1795898;78;21003;-61
2021/05/15 09:41:51;;;;;;;14.58;13.38;;;;;;;20.80;57.62;98400.02;1795068;78;21109;-68
2021/05/15 09:44:24;;;;;;;13.15;12.00;;;;;;;20.78;57.66;98408.36;1798493;78;20904;-66
2021/05/15 09:46:51;;;;;;;13.80;12.55;;;;;;;20.86;57.80;98400.30;1797706;78;20983;-66
2021/05/15 09:49:24;;;;;;;13.65;12.53;;;;;;;20.97;57.74;98395.23;1797389;78;20912;-70
2021/05/15 09:52:06;;;;;;;15.53;14.13;;;;;;;21.06;57.34;98401.80;1762620;80;21035;-73
2021/05/15 09:54:36;;;;;;;15.70;14.30;;;;;;;21.16;57.26;98398.32;1761040;80;21083;-64
2021/05/15 09:57:11;;;;;;;14.07;12.58;;;;;;;21.15;56.77;98415.08;1768081;79;20966;-62
2021/05/15 09:59:46;;;;;;;13.50;12.10;;;;;;;21.16;56.84;98407.79;1763819;79;21675;-61
2021/05/15 10:02:16;;;;;;;14.65;13.08;;;;;;;21.24;57.42;98401.34;1765248;81;20974;-63
2021/05/15 10:04:48;;;;;;;12.85;11.55;;;;;;;21.41;57.04;98403.28;1737291;79;22406;-59
2021/05/15 10:07:27;;;;;;;13.83;12.33;;;;;;;21.57;56.39;98403.33;1762518;79;21054;-59
2021/05/15 10:09:52;;;;;;;12.88;11.60;;;;;;;21.75;55.29;98402.29;1727593;80;21669;-60
2021/05/15 10:12:19;;;;;;;13.53;12.40;;;;;;;21.85;55.03;98392.83;1766316;79;20999;-64
2021/05/15 10:14:46;;;;;;;14.28;13.05;;;;;;;21.89;54.45;98403.44;1791327;78;20988;-60
2021/05/15 10:17:12;;;;;;;15.75;14.30;;;;;;;21.78;54.62;98407.17;1796737;78;21061;-62
2021/05/15 10:19:40;;;;;;;15.32;13.83;;;;;;;21.74;54.65;98410.16;1795482;78;20937;-61
2021/05/15 10:22:07;;;;;;;13.53;12.33;;;;;;;21.69;54.90;98410.12;1792205;78;21672;-61
2021/05/15 10:24:35;;;;;;;18.85;16.85;;;;;;;21.75;55.44;98411.77;1791517;77;20902;-65
2021/05/15 10:27:11;;;;;;;16.80;15.50;;;;;;;21.80;54.93;98409.59;1812412;78;21495;-65
2021/05/15 10:29:44;;;;;;;;;;;;;;;21.85;54.67;98411.78;1800143;78;21005;-60
2021/05/15 10:32:24;;;;;;;14.73;13.18;;;;;;;21.83;53.86;98415.30;1795394;77;21078;-62
2021/05/15 10:35:04;;;;;;;14.38;12.78;;;;;;;21.68;53.78;98411.22;1790219;78;21912;-59
2021/05/15 10:37:36;;;;;;;14.07;12.98;;;;;;;21.60;54.26;98418.50;1743364;81;20995;-55
2021/05/15 10:40:20;;;;;;;14.87;13.35;;;;;;;21.54;54.53;98420.91;1745743;81;21662;-57
2021/05/15 10:42:58;;;;;;;16.10;14.60;;;;;;;21.50;54.88;98417.94;1744438;80;21402;-57
2021/05/15 10:45:40;;;;;;;14.38;13.13;;;;;;;21.50;54.74;98415.77;1740962;81;21067;-56
2021/05/15 10:48:24;;;;;;;16.80;15.18;;;;;;;21.51;54.80;98420.08;1739240;81;21620;-56
2021/05/15 10:50:57;;;;;;;18.92;17.07;;;;;;;21.48;54.92;98416.58;1743151;81;21083;-54
2021/05/15 10:53:32;;;;;;;19.92;18.37;;;;;;;21.37;54.72;98420.32;1729719;81;21632;-54
2021/05/15 10:56:16;;;;;;;18.05;16.60;;;;;;;21.20;55.14;98421.05;1730368;80;20920;-53
2021/05/15 10:58:44;;;;;;;17.35;15.95;;;;;;;21.02;55.56;98418.77;1727959;81;21898;-56
2021/05/15 11:01:16;;;;;;;16.62;15.05;;;;;;;20.91;56.29;98426.00;1734302;81;21003;-55
2021/05/15 11:03:43;;;;;;;17.15;15.68;;;;;;;20.91;56.57;98425.47;1717218;81;21085;-60
2021/05/15 11:06:22;;;;;;;15.55;14.05;;;;;;;21.01;55.95;98420.67;1755774;80;20968;-57
2021/05/15 11:09:01;;;;;;;15.78;14.47;;;;;;;21.06;55.73;98424.79;1757085;80;20893;-58
2021/05/15 11:11:44;;;;;;;13.90;12.65;;;;;;;21.17;55.35;98424.30;1748106;80;21893;-55
2021/05/15 11:14:32;;;;;;;12.58;11.55;;;;;;;21.23;55.61;98422.69;1740729;81;20932;-57
2021/05/15 11:17:28;;;;;;;13.50;11.83;;;;;;;21.34;55.27;98426.25;1689343;79;20992;-57
2021/05/15 11:20:19;;;;;;;16.82;12.10;;;;;;;21.41;55.10;98428.98;1746331;81;21016;-56
2021/05/15 11:22:48;;;;;;;13.00;12.00;;;;;;;21.54;55.11;98426.31;1757021;80;21514;-58
2021/05/15 11:25:19;;;;;;;14.63;11.73;;;;;;;21.66;52.95;98426.91;1743776;80;21058;-56
2021/05/15 11:27:57;;;;;;;14.40;11.53;;;;;;;21.64;51.89;98418.23;1749742;79;21023;-57
2021/05/15 11:30:35;;;;;;;11.15;10.05;;;;;;;21.62;52.26;98424.45;1750670;81;21518;-57
2021/05/15 11:33:07;;;;;;;12.15;11.12;;;;;;;21.68;52.67;98417.98;1735458;81;21088;-58
2021/05/15 11:35:45;;;;;;;10.38;9.63;;;;;;;21.80;52.30;98426.66;1758030;80;20928;-58